Time;durP1;ratioP1;P1;durP2;ratioP2;P2;SDS_P1;SDS_P2;PMS_P1;PMS_P2;Temp;Humidity;BMP_temperature;BMP_pressure;BME280_temperature;BME280_humidity;BME280_pressure;Samples;Min_cycle;Max_cycle;Signal;HPM_P1;HPM_P2
2022/10/16 00:00:45;;;;;;;3.90;3.00;;;;;;;;;;5054033;28;20422;-75
2022/10/16 00:03:11;;;;;;;5.80;3.13;;;;;;;;;;5053937;28;20753;-73
2022/10/16 00:05:41;;;;;;;9.20;4.40;;;;;;;;;;5053750;28;20422;-73
2022/10/16 00:08:08;;;;;;;10.93;4.17;;;;;;;;;;5053889;28;20406;-73
2022/10/16 00:10:34;;;;;;;8.10;3.87;;;;;;;;;;5053808;28;20410;-74
2022/10/16 00:13:00;;;;;;;13.87;4.13;;;;;;;;;;5053752;28;20406;-75
2022/10/16 00:15:26;;;;;;;10.70;3.70;;;;;;;;;;5053715;28;20406;-74
2022/10/16 00:17:52;;;;;;;15.73;3.80;;;;;;;;;;5053593;28;20466;-75
2022/10/16 00:20:18;;;;;;;9.07;3.43;;;;;;;;;;5053503;28;20433;-72
2022/10/16 00:22:44;;;;;;;8.47;4.30;;;;;;;;;;5053638;28;20410;-73
2022/10/16 00:25:10;;;;;;;4.93;3.30;;;;;;;;;;5053543;28;20511;-75
2022/10/16 00:27:36;;;;;;;11.87;3.50;;;;;;;;;;5053518;28;20406;-75
2022/10/16 00:30:02;;;;;;;11.43;3.37;;;;;;;;;;5053508;28;20423;-73
2022/10/16 00:32:28;;;;;;;21.17;3.87;;;;;;;;;;5053472;28;20426;-75
2022/10/16 00:34:56;;;;;;;5.53;3.40;;;;;;;;;;5053463;28;20909;-74
2022/10/16 00:37:22;;;;;;;3.60;3.30;;;;;;;;;;5052163;28;20465;-74
2022/10/16 00:39:49;;;;;;;6.03;3.50;;;;;;;;;;5053438;28;20481;-74
2022/10/16 00:42:18;;;;;;;3.30;2.70;;;;;;;;;;5053402;28;20414;-75
2022/10/16 00:44:44;;;;;;;6.03;3.40;;;;;;;;;;5053300;28;20414;-73
2022/10/16 00:47:12;;;;;;;6.27;3.57;;;;;;;;;;5051982;28;20474;-75
2022/10/16 00:49:38;;;;;;;16.73;3.90;;;;;;;;;;5053275;28;20846;-73
2022/10/16 00:52:05;;;;;;;4.70;2.73;;;;;;;;;;5053286;28;20398;-74
2022/10/16 00:54:32;;;;;;;3.43;3.13;;;;;;;;;;5052023;28;20804;-74
2022/10/16 00:57:00;;;;;;;7.70;3.23;;;;;;;;;;5053277;28;20888;-74
2022/10/16 00:59:27;;;;;;;9.47;3.20;;;;;;;;;;5053154;28;20592;-74
2022/10/16 01:01:54;;;;;;;4.87;3.20;;;;;;;;;;5053240;28;20501;-74
2022/10/16 01:04:20;;;;;;;4.03;3.67;;;;;;;;;;5053153;28;20406;-73
2022/10/16 01:06:58;;;;;;;7.37;3.20;;;;;;;;;;5053187;28;20406;-74
2022/10/16 01:09:53;;;;;;;7.87;2.80;;;;;;;;;;5053196;28;20452;-73
2022/10/16 01:12:38;;;;;;;6.33;3.37;;;;;;;;;;5033692;28;20423;-74
2022/10/16 01:15:07;;;;;;;11.23;2.60;;;;;;;;;;5053073;28;20436;-73
2022/10/16 01:17:41;;;;;;;16.03;3.20;;;;;;;;;;5053045;28;20798;-73
2022/10/16 01:20:07;;;;;;;4.50;2.90;;;;;;;;;;5051729;28;20442;-74
2022/10/16 01:22:57;;;;;;;4.93;2.60;;;;;;;;;;5053012;28;20464;-73
2022/10/16 01:25:31;;;;;;;4.83;3.00;;;;;;;;;;5052999;28;20455;-74
2022/10/16 01:27:57;;;;;;;9.67;3.10;;;;;;;;;;5052946;28;20410;-73
2022/10/16 01:30:26;;;;;;;10.53;2.80;;;;;;;;;;5052968;28;20832;-73
2022/10/16 01:33:03;;;;;;;10.60;2.97;;;;;;;;;;5055873;28;20764;-73
2022/10/16 01:35:32;;;;;;;9.43;2.93;;;;;;;;;;5056640;28;20477;-73
2022/10/16 01:38:06;;;;;;;9.57;3.20;;;;;;;;;;5056714;28;20523;-73
2022/10/16 01:40:34;;;;;;;5.50;3.17;;;;;;;;;;5056689;28;20420;-74
2022/10/16 01:43:03;;;;;;;8.03;3.07;;;;;;;;;;5056574;28;20505;-74
2022/10/16 01:45:30;;;;;;;5.20;2.90;;;;;;;;;;5056489;28;20410;-73
2022/10/16 01:47:56;;;;;;;12.40;2.63;;;;;;;;;;5055094;28;20474;-74
2022/10/16 01:50:22;;;;;;;5.63;2.47;;;;;;;;;;5056409;28;20828;-74
2022/10/16 01:52:51;;;;;;;6.53;2.80;;;;;;;;;;5056495;28;20406;-74
2022/10/16 01:55:25;;;;;;;5.53;2.40;;;;;;;;;;5055080;28;20440;-74
2022/10/16 01:57:52;;;;;;;8.60;2.30;;;;;;;;;;5054931;28;20469;-74
2022/10/16 02:00:19;;;;;;;10.43;2.90;;;;;;;;;;5056255;28;20460;-75
2022/10/16 02:02:47;;;;;;;8.23;2.50;;;;;;;;;;5054913;28;20437;-74
2022/10/16 02:05:19;;;;;;;10.40;2.60;;;;;;;;;;5056115;28;20437;-75
2022/10/16 02:07:45;;;;;;;5.33;2.83;;;;;;;;;;5056199;28;20510;-74
2022/10/16 02:10:11;;;;;;;9.30;2.97;;;;;;;;;;5056077;28;20449;-74
2022/10/16 02:12:39;;;;;;;8.03;3.50;;;;;;;;;;5055995;28;20467;-72
2022/10/16 02:15:06;;;;;;;3.70;2.60;;;;;;;;;;5055998;28;20402;-74
2022/10/16 02:17:32;;;;;;;9.00;2.60;;;;;;;;;;5055930;28;20434;-73
2022/10/16 02:19:58;;;;;;;3.07;2.77;;;;;;;;;;5055922;28;20457;-74
2022/10/16 02:22:28;;;;;;;4.97;2.60;;;;;;;;;;5055992;28;20836;-76
2022/10/16 02:24:57;;;;;;;6.33;2.67;;;;;;;;;;5054665;28;20436;-76
2022/10/16 02:27:23;;;;;;;6.10;2.60;;;;;;;;;;5054170;28;20403;-74
2022/10/16 02:29:52;;;;;;;6.30;2.50;;;;;;;;;;5035872;28;20415;-74
2022/10/16 02:32:21;;;;;;;7.40;2.90;;;;;;;;;;5034536;28;20456;-75
2022/10/16 02:34:48;;;;;;;5.70;2.40;;;;;;;;;;5035749;28;20810;-75
2022/10/16 02:37:14;;;;;;;18.77;3.50;;;;;;;;;;5035595;28;20417;-75
2022/10/16 02:39:41;;;;;;;15.50;3.43;;;;;;;;;;5035540;28;20471;-73
2022/10/16 02:42:10;;;;;;;6.53;2.80;;;;;;;;;;5035543;28;20407;-74
2022/10/16 02:44:36;;;;;;;3.27;2.60;;;;;;;;;;5034480;28;20514;-73
2022/10/16 02:47:02;;;;;;;7.67;3.13;;;;;;;;;;5035547;28;20630;-75
2022/10/16 02:49:28;;;;;;;7.80;2.93;;;;;;;;;;5034114;28;20766;-75
2022/10/16 02:51:54;;;;;;;10.37;3.20;;;;;;;;;;5035362;28;20410;-74
2022/10/16 02:54:20;;;;;;;4.93;3.07;;;;;;;;;;5035287;28;20461;-74
2022/10/16 02:56:46;;;;;;;11.90;2.83;;;;;;;;;;5035321;28;20401;-74
2022/10/16 02:59:12;;;;;;;17.63;3.43;;;;;;;;;;5033916;28;20480;-73
2022/10/16 03:01:38;;;;;;;10.10;3.70;;;;;;;;;;5035238;28;20940;-74
2022/10/16 03:04:04;;;;;;;9.00;3.20;;;;;;;;;;5033771;28;20450;-74
2022/10/16 03:06:30;;;;;;;12.33;3.30;;;;;;;;;;5035109;28;20909;-74
2022/10/16 03:08:56;;;;;;;9.90;3.40;;;;;;;;;;5035057;28;20458;-73
2022/10/16 03:11:22;;;;;;;4.53;2.67;;;;;;;;;;5035068;28;20416;-75
2022/10/16 03:13:48;;;;;;;8.33;2.80;;;;;;;;;;5034876;28;20757;-75
2022/10/16 03:16:14;;;;;;;7.00;2.57;;;;;;;;;;5034900;28;20410;-76
2022/10/16 03:18:40;;;;;;;11.77;3.03;;;;;;;;;;5034765;28;21000;-75
2022/10/16 03:21:06;;;;;;;12.80;3.10;;;;;;;;;;5034822;28;20441;-75
2022/10/16 03:23:32;;;;;;;9.73;5.93;;;;;;;;;;5034612;28;20485;-75
2022/10/16 03:25:58;;;;;;;18.97;3.57;;;;;;;;;;5034801;28;20793;-74
2022/10/16 03:28:24;;;;;;;3.67;3.33;;;;;;;;;;5033391;28;20529;-74
2022/10/16 03:30:50;;;;;;;5.90;2.83;;;;;;;;;;5034670;28;20920;-75
2022/10/16 03:33:16;;;;;;;6.77;3.40;;;;;;;;;;5033275;28;21027;-74
2022/10/16 03:35:42;;;;;;;6.03;2.77;;;;;;;;;;5034536;28;20427;-74
2022/10/16 03:38:08;;;;;;;3.50;3.20;;;;;;;;;;5034478;28;20466;-74
2022/10/16 03:40:34;;;;;;;3.60;2.80;;;;;;;;;;5034474;28;20415;-74
2022/10/16 03:43:01;;;;;;;4.87;2.50;;;;;;;;;;5034469;28;20445;-74
2022/10/16 03:45:27;;;;;;;8.83;2.63;;;;;;;;;;5034384;28;20894;-74
2022/10/16 03:47:53;;;;;;;3.30;2.50;;;;;;;;;;5032945;28;20570;-73
2022/10/16 03:50:19;;;;;;;8.00;3.10;;;;;;;;;;5034181;28;20426;-74
2022/10/16 03:52:45;;;;;;;7.77;3.00;;;;;;;;;;5034536;28;20414;-74
2022/10/16 03:55:11;;;;;;;7.03;3.00;;;;;;;;;;5033907;28;20510;-73
2022/10/16 03:57:37;;;;;;;3.73;3.47;;;;;;;;;;5032808;28;20426;-74
2022/10/16 04:00:03;;;;;;;9.97;3.20;;;;;;;;;;5034171;28;20505;-74
2022/10/16 04:02:29;;;;;;;13.13;3.27;;;;;;;;;;5034020;28;20414;-74
2022/10/16 04:04:55;;;;;;;4.93;3.17;;;;;;;;;;5033980;28;20522;-73
2022/10/16 04:07:21;;;;;;;5.90;3.30;;;;;;;;;;5034023;28;20476;-73
2022/10/16 04:09:47;;;;;;;3.50;3.17;;;;;;;;;;5033968;28;20422;-74
2022/10/16 04:12:13;;;;;;;13.73;2.93;;;;;;;;;;5033884;28;20418;-74
2022/10/16 04:14:39;;;;;;;9.40;3.00;;;;;;;;;;5033870;28;20422;-74
2022/10/16 04:17:05;;;;;;;10.13;2.83;;;;;;;;;;5033808;28;20503;-74
2022/10/16 04:19:31;;;;;;;10.33;3.20;;;;;;;;;;5033663;28;20482;-74
2022/10/16 04:21:57;;;;;;;2.80;2.70;;;;;;;;;;5033720;28;20545;-73
2022/10/16 04:24:22;;;;;;;4.33;3.63;;;;;;;;;;5033799;28;20462;-73
2022/10/16 04:26:49;;;;;;;5.90;3.97;;;;;;;;;;5033626;28;20410;-74
2022/10/16 04:29:15;;;;;;;6.77;4.13;;;;;;;;;;5033663;28;20419;-74
2022/10/16 04:31:41;;;;;;;9.40;2.63;;;;;;;;;;5033587;28;20403;-73
2022/10/16 04:34:07;;;;;;;5.47;2.90;;;;;;;;;;5033617;28;20468;-74
2022/10/16 04:36:33;;;;;;;8.53;3.00;;;;;;;;;;5033823;28;20765;-73
2022/10/16 04:38:58;;;;;;;5.90;2.80;;;;;;;;;;5033439;28;20474;-72
2022/10/16 04:41:24;;;;;;;4.10;3.20;;;;;;;;;;5032320;28;20901;-70
2022/10/16 04:43:50;;;;;;;6.07;2.63;;;;;;;;;;5033454;28;20415;-71
2022/10/16 04:46:16;;;;;;;9.03;3.20;;;;;;;;;;5033501;28;20406;-71
2022/10/16 04:48:42;;;;;;;10.17;3.10;;;;;;;;;;5032037;28;20570;-72
2022/10/16 04:51:08;;;;;;;8.50;3.00;;;;;;;;;;5032103;28;20409;-73
2022/10/16 04:53:34;;;;;;;6.93;3.40;;;;;;;;;;5033412;28;20414;-71
2022/10/16 04:56:00;;;;;;;4.30;3.47;;;;;;;;;;5033262;28;20414;-73
2022/10/16 04:58:26;;;;;;;3.47;3.17;;;;;;;;;;5031951;28;20510;-70
2022/10/16 05:00:52;;;;;;;13.53;4.00;;;;;;;;;;5033270;28;20948;-73
2022/10/16 05:03:18;;;;;;;6.07;2.97;;;;;;;;;;5033214;28;20423;-72
2022/10/16 05:05:45;;;;;;;7.47;3.60;;;;;;;;;;5031960;28;20427;-73
2022/10/16 05:08:11;;;;;;;4.30;4.10;;;;;;;;;;5036906;28;20425;-70
2022/10/16 05:10:37;;;;;;;7.10;3.83;;;;;;;;;;5037294;28;20884;-71
2022/10/16 05:13:03;;;;;;;9.27;3.70;;;;;;;;;;5037195;28;20446;-69
2022/10/16 05:15:29;;;;;;;5.13;4.40;;;;;;;;;;5037207;28;20411;-69
2022/10/16 05:17:56;;;;;;;9.37;3.80;;;;;;;;;;5035839;28;20986;-70
2022/10/16 05:20:23;;;;;;;4.13;3.63;;;;;;;;;;5037032;28;20840;-69
2022/10/16 05:22:49;;;;;;;12.73;3.90;;;;;;;;;;5036998;28;20398;-69
2022/10/16 05:25:15;;;;;;;4.53;2.93;;;;;;;;;;5037040;28;20414;-69
2022/10/16 05:27:41;;;;;;;5.23;3.27;;;;;;;;;;5037013;28;20433;-69
2022/10/16 05:30:07;;;;;;;4.47;4.13;;;;;;;;;;5036964;28;20464;-71
2022/10/16 05:32:33;;;;;;;19.53;3.63;;;;;;;;;;5036779;28;20394;-73
2022/10/16 05:34:59;;;;;;;4.70;3.30;;;;;;;;;;5036759;28;20425;-73
2022/10/16 05:37:25;;;;;;;20.23;3.50;;;;;;;;;;5035474;28;20409;-73
2022/10/16 05:39:51;;;;;;;6.67;2.97;;;;;;;;;;5036740;28;20942;-70
2022/10/16 05:42:18;;;;;;;8.13;2.90;;;;;;;;;;5036783;28;20441;-70
2022/10/16 05:44:44;;;;;;;7.20;3.10;;;;;;;;;;5036692;28;20409;-71
2022/10/16 05:47:10;;;;;;;6.67;3.03;;;;;;;;;;5036483;28;20628;-71
2022/10/16 05:49:36;;;;;;;3.33;3.13;;;;;;;;;;5035273;28;20466;-70
2022/10/16 05:52:02;;;;;;;8.13;3.67;;;;;;;;;;5035159;28;20433;-71
2022/10/16 05:54:28;;;;;;;3.60;3.30;;;;;;;;;;5036493;28;20460;-70
2022/10/16 05:56:54;;;;;;;11.83;6.50;;;;;;;;;;5036340;28;20403;-71
2022/10/16 05:59:20;;;;;;;24.70;20.50;;;;;;;;;;5036255;28;20470;-69
2022/10/16 06:01:46;;;;;;;7.03;5.47;;;;;;;;;;5036260;28;20403;-72
2022/10/16 06:04:12;;;;;;;9.20;5.90;;;;;;;;;;5036222;28;20835;-69
2022/10/16 06:06:38;;;;;;;4.73;3.50;;;;;;;;;;5036209;28;20490;-70
2022/10/16 06:09:04;;;;;;;5.27;3.30;;;;;;;;;;5036329;28;20414;-67
2022/10/16 06:11:31;;;;;;;3.90;2.70;;;;;;;;;;5036162;28;20772;-69
2022/10/16 06:13:59;;;;;;;6.77;2.93;;;;;;;;;;5036072;28;20411;-68
2022/10/16 06:16:26;;;;;;;3.93;3.30;;;;;;;;;;5036022;28;20394;-69
2022/10/16 06:18:53;;;;;;;6.03;3.50;;;;;;;;;;5035738;28;20471;-68
2022/10/16 06:21:21;;;;;;;5.13;3.17;;;;;;;;;;5035882;28;20419;-68
2022/10/16 06:23:47;;;;;;;7.80;3.30;;;;;;;;;;5036005;28;20931;-69
2022/10/16 06:26:14;;;;;;;8.73;3.10;;;;;;;;;;5035968;28;20403;-73
2022/10/16 06:28:40;;;;;;;6.07;3.10;;;;;;;;;;5035854;28;20399;-73
2022/10/16 06:31:07;;;;;;;5.70;4.63;;;;;;;;;;5034543;28;20441;-74
2022/10/16 06:33:33;;;;;;;9.17;4.57;;;;;;;;;;5035750;28;20396;-74
2022/10/16 06:36:04;;;;;;;10.07;3.30;;;;;;;;;;5035733;28;20898;-73
2022/10/16 06:38:30;;;;;;;11.33;3.23;;;;;;;;;;5035564;28;20462;-71
2022/10/16 06:40:56;;;;;;;3.67;3.00;;;;;;;;;;5035947;28;20436;-72
2022/10/16 06:43:22;;;;;;;9.13;2.70;;;;;;;;;;5035583;28;20878;-72
2022/10/16 06:45:54;;;;;;;7.17;2.70;;;;;;;;;;5034217;28;20492;-72
2022/10/16 06:48:21;;;;;;;8.90;4.00;;;;;;;;;;5035287;28;20526;-72
2022/10/16 06:51:00;;;;;;;8.27;4.53;;;;;;;;;;5035386;28;21025;-75
2022/10/16 06:53:27;;;;;;;11.00;4.23;;;;;;;;;;5035436;28;20461;-75
2022/10/16 06:55:53;;;;;;;5.90;4.70;;;;;;;;;;5035390;28;20780;-76
2022/10/16 06:58:19;;;;;;;5.60;4.33;;;;;;;;;;5035183;28;20559;-75
2022/10/16 07:00:45;;;;;;;8.73;4.57;;;;;;;;;;5035295;28;20498;-74
2022/10/16 07:03:11;;;;;;;4.80;4.50;;;;;;;;;;5035165;28;20446;-74
2022/10/16 07:05:43;;;;;;;7.43;4.77;;;;;;;;;;5035158;28;20419;-76
2022/10/16 07:08:09;;;;;;;5.97;4.40;;;;;;;;;;5033857;28;20434;-77
2022/10/16 07:10:36;;;;;;;11.23;4.70;;;;;;;;;;5035058;28;20423;-77
2022/10/16 07:13:02;;;;;;;10.57;4.97;;;;;;;;;;5034956;28;20894;-77
2022/10/16 07:15:28;;;;;;;19.13;3.80;;;;;;;;;;5033714;28;20430;-77
2022/10/16 07:17:54;;;;;;;7.00;3.70;;;;;;;;;;5034877;28;20459;-76
2022/10/16 07:20:20;;;;;;;5.53;4.40;;;;;;;;;;5033535;28;20449;-76
2022/10/16 07:22:46;;;;;;;7.10;4.43;;;;;;;;;;5034848;28;20415;-76
2022/10/16 07:25:12;;;;;;;7.20;4.43;;;;;;;;;;5033830;28;20461;-75
2022/10/16 07:27:38;;;;;;;7.20;4.40;;;;;;;;;;5034947;28;20419;-75
2022/10/16 07:30:04;;;;;;;5.00;4.60;;;;;;;;;;5034039;28;20924;-75
2022/10/16 07:32:31;;;;;;;6.77;6.17;;;;;;;;;;5034588;28;20917;-75
2022/10/16 07:34:57;;;;;;;12.00;5.80;;;;;;;;;;5034531;28;20426;-75
2022/10/16 07:37:23;;;;;;;8.47;5.17;;;;;;;;;;5034498;28;20494;-75
2022/10/16 07:39:49;;;;;;;4.87;3.63;;;;;;;;;;5034408;28;20481;-76
2022/10/16 07:42:15;;;;;;;9.20;3.57;;;;;;;;;;5034433;28;20499;-74
2022/10/16 07:44:41;;;;;;;10.73;3.87;;;;;;;;;;5033004;28;20481;-76
2022/10/16 07:47:07;;;;;;;10.43;6.20;;;;;;;;;;5034189;28;20481;-77
2022/10/16 07:49:33;;;;;;;6.80;6.23;;;;;;;;;;5034243;28;20438;-76
2022/10/16 07:51:59;;;;;;;10.40;6.20;;;;;;;;;;5034263;28;20545;-75
2022/10/16 07:54:25;;;;;;;13.27;11.77;;;;;;;;;;5034270;28;20403;-75
2022/10/16 07:56:51;;;;;;;4.47;3.27;;;;;;;;;;5034151;28;20431;-75
2022/10/16 07:59:17;;;;;;;6.53;3.20;;;;;;;;;;5034035;28;20552;-75
2022/10/16 08:01:43;;;;;;;3.57;2.80;;;;;;;;;;5032810;28;20446;-74
2022/10/16 08:04:09;;;;;;;4.33;3.87;;;;;;;;;;5034170;28;20419;-74
2022/10/16 08:06:36;;;;;;;6.37;3.20;;;;;;;;;;5034087;28;21070;-75
2022/10/16 08:09:02;;;;;;;4.47;2.90;;;;;;;;;;5033989;28;20470;-75
2022/10/16 08:11:28;;;;;;;3.07;2.57;;;;;;;;;;5033929;28;20409;-75
2022/10/16 08:13:54;;;;;;;3.53;3.03;;;;;;;;;;5033795;28;20473;-75
2022/10/16 08:16:21;;;;;;;4.20;2.73;;;;;;;;;;5033806;28;20409;-78
2022/10/16 08:18:47;;;;;;;5.17;2.47;;;;;;;;;;5033764;28;20927;-76
2022/10/16 08:21:14;;;;;;;5.83;2.30;;;;;;;;;;5032464;28;20437;-75
2022/10/16 08:23:40;;;;;;;11.33;3.03;;;;;;;;;;5033839;28;20409;-78
2022/10/16 08:26:07;;;;;;;3.07;2.50;;;;;;;;;;5033722;28;20412;-74
2022/10/16 08:28:33;;;;;;;9.20;2.67;;;;;;;;;;5033624;28;20499;-77
2022/10/16 08:31:09;;;;;;;2.37;1.97;;;;;;;;;;5033736;28;20492;-75
2022/10/16 08:33:35;;;;;;;10.87;2.60;;;;;;;;;;5033592;28;20450;-74
2022/10/16 08:36:02;;;;;;;9.53;2.23;;;;;;;;;;5033540;28;20413;-75
2022/10/16 08:38:28;;;;;;;10.33;2.70;;;;;;;;;;5033423;28;21150;-75
2022/10/16 08:40:56;;;;;;;7.47;2.23;;;;;;;;;;5033539;28;20503;-74
2022/10/16 08:43:51;;;;;;;3.77;2.27;;;;;;;;;;5033385;28;20411;-74
2022/10/16 08:46:41;;;;;;;3.60;2.20;;;;;;;;;;5024626;28;20438;-75
2022/10/16 08:49:12;;;;;;;3.87;2.40;;;;;;;;;;5033376;28;20921;-73
2022/10/16 08:51:38;;;;;;;6.30;3.10;;;;;;;;;;5033413;28;20887;-75
2022/10/16 08:54:23;;;;;;;3.20;2.70;;;;;;;;;;5031973;28;20510;-76
2022/10/16 08:56:49;;;;;;;6.73;2.97;;;;;;;;;;5033415;28;20405;-74
2022/10/16 08:59:16;;;;;;;3.13;1.93;;;;;;;;;;5033216;28;20476;-76
2022/10/16 09:01:45;;;;;;;6.43;2.30;;;;;;;;;;5032106;28;20431;-74
2022/10/16 09:04:27;;;;;;;2.23;2.10;;;;;;;;;;5033289;28;20416;-74
2022/10/16 09:06:55;;;;;;;4.43;2.50;;;;;;;;;;5033201;28;20772;-75
2022/10/16 09:09:40;;;;;;;2.30;2.20;;;;;;;;;;5033220;28;20411;-74
2022/10/16 09:12:17;;;;;;;4.00;2.33;;;;;;;;;;5033161;28;20414;-74
2022/10/16 09:14:43;;;;;;;7.60;2.80;;;;;;;;;;5033211;28;20418;-74
2022/10/16 09:17:15;;;;;;;10.53;2.97;;;;;;;;;;5033147;28;20409;-76
2022/10/16 09:19:46;;;;;;;8.30;4.93;;;;;;;;;;5033096;28;20483;-75
2022/10/16 09:22:14;;;;;;;9.30;3.63;;;;;;;;;;5033112;28;20412;-76
2022/10/16 09:24:40;;;;;;;3.47;2.07;;;;;;;;;;5033206;28;20918;-74
2022/10/16 09:27:10;;;;;;;3.20;1.90;;;;;;;;;;5033121;28;20413;-73
2022/10/16 09:29:36;;;;;;;4.23;2.80;;;;;;;;;;5033007;28;20949;-74
2022/10/16 09:32:10;;;;;;;5.40;1.57;;;;;;;;;;5031767;28;20432;-75
2022/10/16 09:34:38;;;;;;;8.87;1.83;;;;;;;;;;5033014;28;20428;-75
2022/10/16 09:37:06;;;;;;;6.10;2.20;;;;;;;;;;5033002;28;20414;-75
2022/10/16 09:39:44;;;;;;;4.53;1.77;;;;;;;;;;5032861;28;20473;-75
2022/10/16 09:42:11;;;;;;;4.10;1.87;;;;;;;;;;5033231;28;20766;-75
2022/10/16 09:44:37;;;;;;;7.63;1.60;;;;;;;;;;5032900;28;20442;-76
2022/10/16 09:47:04;;;;;;;2.00;1.90;;;;;;;;;;5031529;28;20467;-76
2022/10/16 09:49:30;;;;;;;3.03;2.23;;;;;;;;;;5032784;28;20420;-76
2022/10/16 09:52:25;;;;;;;3.60;1.97;;;;;;;;;;5032878;28;20816;-75
2022/10/16 09:54:55;;;;;;;7.60;1.70;;;;;;;;;;5027870;28;20445;-78
2022/10/16 09:57:22;;;;;;;7.53;2.10;;;;;;;;;;5036452;28;20401;-76
2022/10/16 09:59:52;;;;;;;10.83;2.90;;;;;;;;;;5036261;28;20527;-72
2022/10/16 10:02:19;;;;;;;3.17;2.50;;;;;;;;;;5036304;28;20410;-75
2022/10/16 10:04:55;;;;;;;3.67;2.37;;;;;;;;;;5036183;28;20489;-78
2022/10/16 10:07:25;;;;;;;5.13;2.60;;;;;;;;;;5036209;28;20415;-80
2022/10/16 10:09:51;;;;;;;3.40;3.00;;;;;;;;;;5036229;28;20444;-77
2022/10/16 10:12:21;;;;;;;3.70;2.77;;;;;;;;;;5036110;28;20882;-73
2022/10/16 10:14:49;;;;;;;8.23;3.00;;;;;;;;;;5035068;28;20527;-73
2022/10/16 10:17:24;;;;;;;20.93;3.23;;;;;;;;;;5036058;28;20409;-76
2022/10/16 10:19:55;;;;;;;2.70;2.00;;;;;;;;;;5035913;28;20477;-73
2022/10/16 10:22:21;;;;;;;7.47;2.03;;;;;;;;;;5036136;28;20419;-73
2022/10/16 10:24:56;;;;;;;2.30;2.20;;;;;;;;;;5035912;28;20425;-74
2022/10/16 10:27:24;;;;;;;12.40;2.23;;;;;;;;;;5034570;28;20477;-72
2022/10/16 10:29:57;;;;;;;2.70;2.33;;;;;;;;;;5035802;28;20423;-74
2022/10/16 10:32:28;;;;;;;2.03;1.93;;;;;;;;;;5035801;28;20474;-75
2022/10/16 10:35:00;;;;;;;10.67;1.90;;;;;;;;;;5036903;28;20422;-74
2022/10/16 10:37:36;;;;;;;8.83;2.00;;;;;;;;;;5036485;28;20411;-74
2022/10/16 10:40:17;;;;;;;7.30;3.00;;;;;;;;;;5037070;28;20466;-76
2022/10/16 10:42:48;;;;;;;6.57;2.43;;;;;;;;;;5035569;28;20502;-73
2022/10/16 10:45:14;;;;;;;9.93;1.60;;;;;;;;;;5035870;28;20456;-72
2022/10/16 10:47:55;;;;;;;3.10;1.90;;;;;;;;;;5035586;28;20561;-72
2022/10/16 10:50:40;;;;;;;4.93;1.70;;;;;;;;;;5035581;28;20183;-72
2022/10/16 10:53:25;;;;;;;4.20;2.23;;;;;;;;;;5035519;28;21065;-72
2022/10/16 10:56:06;;;;;;;1.50;1.50;;;;;;;;;;5035297;28;20766;-72
2022/10/16 10:58:51;;;;;;;6.40;1.80;;;;;;;;;;5035301;28;20525;-72
2022/10/16 11:01:22;;;;;;;2.50;1.90;;;;;;;;;;5035175;28;20422;-74
2022/10/16 11:04:07;;;;;;;3.13;2.90;;;;;;;;;;5034433;28;20458;-71
2022/10/16 11:06:36;;;;;;;4.10;2.60;;;;;;;;;;5035068;28;20425;-73
2022/10/16 11:09:15;;;;;;;7.40;2.53;;;;;;;;;;5035098;28;20423;-72
2022/10/16 11:11:44;;;;;;;8.23;3.17;;;;;;;;;;5035035;28;20407;-72
2022/10/16 11:14:16;;;;;;;6.33;2.20;;;;;;;;;;5033761;28;20425;-72
2022/10/16 11:16:48;;;;;;;1.87;1.77;;;;;;;;;;5034894;28;20434;-71
2022/10/16 11:19:29;;;;;;;9.67;2.33;;;;;;;;;;5034752;28;20501;-71
2022/10/16 11:22:04;;;;;;;3.93;1.73;;;;;;;;;;5034818;28;20891;-74
2022/10/16 11:24:33;;;;;;;4.60;2.13;;;;;;;;;;5034778;28;20743;-76
2022/10/16 11:27:08;;;;;;;2.93;1.70;;;;;;;;;;5033457;28;20430;-74
2022/10/16 11:29:35;;;;;;;6.93;1.90;;;;;;;;;;5034672;28;20406;-75
2022/10/16 11:32:15;;;;;;;5.47;2.07;;;;;;;;;;5033405;28;20909;-74
2022/10/16 11:34:45;;;;;;;4.73;2.57;;;;;;;;;;5034602;28;20494;-73
2022/10/16 11:37:24;;;;;;;2.20;2.00;;;;;;;;;;5034635;28;20418;-73
2022/10/16 11:39:50;;;;;;;4.20;2.10;;;;;;;;;;5034484;28;20470;-73
2022/10/16 11:42:19;;;;;;;3.07;1.93;;;;;;;;;;5033257;28;20454;-73
2022/10/16 11:44:51;;;;;;;5.23;2.17;;;;;;;;;;5034365;28;20501;-73
2022/10/16 11:47:24;;;;;;;1.90;1.90;;;;;;;;;;5032881;28;20477;-75
2022/10/16 11:49:53;;;;;;;4.70;1.43;;;;;;;;;;5034246;28;20441;-75
2022/10/16 11:52:39;;;;;;;7.53;2.67;;;;;;;;;;5034221;28;20498;-74
2022/10/16 11:55:15;;;;;;;10.30;1.90;;;;;;;;;;5042763;28;20425;-75
2022/10/16 11:57:44;;;;;;;1.70;1.63;;;;;;;;;;5054059;28;20403;-74
2022/10/16 12:00:16;;;;;;;1.77;1.67;;;;;;;;;;5054163;28;20443;-74
2022/10/16 12:02:54;;;;;;;2.37;1.80;;;;;;;;;;5053962;28;20403;-73
2022/10/16 12:05:23;;;;;;;4.83;1.50;;;;;;;;;;5053829;28;20956;-72
2022/10/16 12:07:57;;;;;;;1.30;1.30;;;;;;;;;;5053894;28;20400;-72
2022/10/16 12:10:28;;;;;;;5.17;3.07;;;;;;;;;;5053890;28;20399;-74
2022/10/16 12:12:56;;;;;;;0.90;0.90;;;;;;;;;;5053840;28;20770;-76
2022/10/16 12:15:22;;;;;;;1.77;1.67;;;;;;;;;;5053458;28;20407;-72
2022/10/16 12:17:48;;;;;;;3.17;1.20;;;;;;;;;;5053607;28;20759;-72
2022/10/16 12:20:14;;;;;;;2.23;1.37;;;;;;;;;;5053690;28;20423;-72
2022/10/16 12:22:50;;;;;;;1.27;1.07;;;;;;;;;;5053538;28;20410;-73
2022/10/16 12:25:37;;;;;;;3.17;1.20;;;;;;;;;;5053591;28;20418;-74
2022/10/16 12:28:07;;;;;;;4.27;1.17;;;;;;;;;;5053614;28;20405;-75
2022/10/16 12:30:35;;;;;;;1.70;0.90;;;;;;;;;;5053632;28;20407;-76
2022/10/16 12:33:03;;;;;;;1.50;1.23;;;;;;;;;;5053407;28;20441;-74
2022/10/16 12:35:30;;;;;;;3.90;1.50;;;;;;;;;;5052082;28;20438;-74
2022/10/16 12:38:07;;;;;;;4.10;1.17;;;;;;;;;;5053389;28;20880;-74
2022/10/16 12:40:35;;;;;;;1.90;1.23;;;;;;;;;;5053437;28;20410;-73
2022/10/16 12:43:11;;;;;;;1.63;1.40;;;;;;;;;;5053332;28;20435;-74
2022/10/16 12:45:37;;;;;;;1.33;1.20;;;;;;;;;;5053346;28;20402;-72
2022/10/16 12:48:05;;;;;;;4.67;1.27;;;;;;;;;;5053155;28;20796;-72
2022/10/16 12:50:36;;;;;;;2.30;1.20;;;;;;;;;;5053351;28;20463;-74
2022/10/16 12:53:03;;;;;;;2.53;1.50;;;;;;;;;;5053244;28;20558;-72
2022/10/16 12:55:35;;;;;;;1.50;1.40;;;;;;;;;;5053159;28;20408;-76
2022/10/16 12:58:06;;;;;;;1.40;1.30;;;;;;;;;;5051855;28;20423;-73
2022/10/16 13:00:36;;;;;;;2.10;1.10;;;;;;;;;;5053220;28;20471;-74
2022/10/16 13:03:15;;;;;;;1.37;1.23;;;;;;;;;;5053301;28;20866;-75
2022/10/16 13:05:59;;;;;;;2.40;1.30;;;;;;;;;;5053080;28;20431;-77
2022/10/16 13:08:31;;;;;;;1.30;1.30;;;;;;;;;;5053298;28;20414;-75
2022/10/16 13:11:08;;;;;;;8.53;1.70;;;;;;;;;;5053118;28;20460;-75
2022/10/16 13:13:57;;;;;;;1.30;1.20;;;;;;;;;;5053088;28;20411;-74
2022/10/16 13:16:26;;;;;;;5.60;1.40;;;;;;;;;;5049908;28;20427;-75
2022/10/16 13:19:02;;;;;;;3.40;1.10;;;;;;;;;;5052967;28;20473;-74
2022/10/16 13:21:40;;;;;;;2.53;1.37;;;;;;;;;;5052940;28;20444;-75
2022/10/16 13:24:09;;;;;;;2.40;1.20;;;;;;;;;;5052983;28;20438;-74
2022/10/16 13:26:50;;;;;;;4.20;1.20;;;;;;;;;;5052963;28;20791;-74
2022/10/16 13:29:16;;;;;;;3.37;1.40;;;;;;;;;;5056644;28;20492;-74
2022/10/16 13:31:43;;;;;;;2.73;1.77;;;;;;;;;;5055579;28;20461;-72
2022/10/16 13:34:15;;;;;;;1.27;1.27;;;;;;;;;;5056854;28;20889;-76
2022/10/16 13:36:59;;;;;;;1.13;1.13;;;;;;;;;;5056722;28;20423;-73
2022/10/16 13:39:26;;;;;;;7.90;1.10;;;;;;;;;;5055285;28;20481;-74
2022/10/16 13:42:03;;;;;;;4.77;1.27;;;;;;;;;;5056636;28;20609;-70
2022/10/16 13:44:33;;;;;;;1.07;1.07;;;;;;;;;;5056659;28;20429;-68
2022/10/16 13:47:00;;;;;;;2.10;1.50;;;;;;;;;;5056388;28;20466;-70
2022/10/16 13:49:26;;;;;;;1.23;1.23;;;;;;;;;;5056390;28;20966;-72
2022/10/16 13:51:59;;;;;;;1.10;1.10;;;;;;;;;;5056526;28;20392;-70
2022/10/16 13:54:26;;;;;;;1.07;1.07;;;;;;;;;;5056456;28;20414;-70
2022/10/16 13:56:52;;;;;;;3.90;1.10;;;;;;;;;;5055174;28;20932;-69
2022/10/16 13:59:26;;;;;;;1.30;1.30;;;;;;;;;;5056274;28;20519;-70
2022/10/16 14:01:54;;;;;;;5.10;1.20;;;;;;;;;;5056289;28;20402;-70
2022/10/16 14:04:20;;;;;;;1.27;1.27;;;;;;;;;;5056328;28;20461;-68
2022/10/16 14:06:47;;;;;;;4.83;1.10;;;;;;;;;;5056114;28;20442;-69
2022/10/16 14:09:27;;;;;;;4.73;1.47;;;;;;;;;;5056240;28;20481;-68
2022/10/16 14:11:59;;;;;;;2.50;1.40;;;;;;;;;;5056157;28;20438;-69
2022/10/16 14:14:25;;;;;;;1.30;1.20;;;;;;;;;;5055936;28;20393;-69
2022/10/16 14:16:51;;;;;;;1.23;1.13;;;;;;;;;;5056162;28;20410;-70
2022/10/16 14:19:25;;;;;;;1.10;1.10;;;;;;;;;;5055913;28;20867;-71
2022/10/16 14:21:51;;;;;;;2.87;1.20;;;;;;;;;;5054616;28;20425;-69
2022/10/16 14:24:31;;;;;;;3.17;1.30;;;;;;;;;;5054538;28;20430;-68
2022/10/16 14:26:57;;;;;;;1.10;1.10;;;;;;;;;;5055823;28;20497;-68
2022/10/16 14:29:25;;;;;;;2.87;1.10;;;;;;;;;;5055809;28;20439;-71
2022/10/16 14:31:55;;;;;;;8.27;1.30;;;;;;;;;;5055753;28;20429;-71
2022/10/16 14:34:27;;;;;;;1.23;1.13;;;;;;;;;;5054402;28;20484;-70
2022/10/16 14:36:53;;;;;;;3.10;1.57;;;;;;;;;;5055568;28;20434;-72
2022/10/16 14:39:20;;;;;;;3.47;1.43;;;;;;;;;;5054092;28;20481;-71
2022/10/16 14:41:47;;;;;;;2.30;1.00;;;;;;;;;;5055589;28;20410;-72
2022/10/16 14:44:13;;;;;;;1.43;1.43;;;;;;;;;;5055427;28;20417;-71
2022/10/16 14:46:41;;;;;;;1.53;1.37;;;;;;;;;;5055291;28;20399;-71
2022/10/16 14:49:10;;;;;;;3.40;1.33;;;;;;;;;;5055373;28;20514;-70
2022/10/16 14:51:36;;;;;;;2.23;1.27;;;;;;;;;;5055334;28;20505;-76